createdAt,value
2019-05-02T00:01:30.607Z,101376.09
2019-05-02T00:04:00.241Z,101376.50
2019-05-02T00:06:30.202Z,101372.54
2019-05-02T00:09:03.925Z,101372.48
2019-05-02T00:11:31.491Z,101373.36
2019-05-02T00:14:01.393Z,101361.60
2019-05-02T00:16:33.948Z,101364.16
2019-05-02T00:19:03.505Z,101363.67
2019-05-02T00:21:37.733Z,101355.87
2019-05-02T00:24:05.007Z,101357.17
2019-05-02T00:26:34.427Z,101357.09
2019-05-02T00:29:04.021Z,101348.35
2019-05-02T00:31:33.526Z,101345.30
2019-05-02T00:34:02.978Z,101348.34
2019-05-02T00:36:32.385Z,101350.91
2019-05-02T00:39:01.829Z,101349.10
2019-05-02T00:41:33.127Z,101345.19
2019-05-02T00:44:06.102Z,101346.94
2019-05-02T00:46:35.016Z,101343.25
2019-05-02T00:49:04.828Z,101344.64
2019-05-02T00:51:34.239Z,101342.13
2019-05-02T00:54:03.752Z,101342.08
2019-05-02T00:56:33.169Z,101344.69
2019-05-02T00:59:07.608Z,101342.48
2019-05-02T01:01:38.358Z,101336.40
2019-05-02T01:04:23.403Z,101326.34
2019-05-02T01:06:53.083Z,101325.50
2019-05-02T01:09:22.696Z,101314.64
2019-05-02T01:11:52.180Z,101318.11
2019-05-02T01:14:21.642Z,101315.90
2019-05-02T01:16:54.411Z,101309.73
2019-05-02T01:19:22.347Z,101310.17
2019-05-02T01:21:51.767Z,101303.23
2019-05-02T01:24:21.365Z,101298.41
2019-05-02T01:26:52.414Z,101296.16
2019-05-02T01:29:31.462Z,101290.98
2019-05-02T01:32:10.785Z,101292.70
2019-05-02T01:34:56.201Z,101278.82
2019-05-02T01:37:30.146Z,101279.12
2019-05-02T01:39:59.599Z,101280.03
2019-05-02T01:42:39.401Z,101274.81
2019-05-02T01:45:00.160Z,101276.97
2019-05-02T01:47:34.066Z,101276.52
2019-05-02T01:50:00.786Z,101277.36
2019-05-02T01:52:30.262Z,101273.91
2019-05-02T01:54:59.826Z,101266.97
2019-05-02T01:57:29.247Z,101269.94
2019-05-02T01:59:58.720Z,101263.59
2019-05-02T02:02:32.731Z,101260.08
2019-05-02T02:04:59.235Z,101257.96
2019-05-02T02:07:29.225Z,101255.25
2019-05-02T02:09:58.642Z,101249.12
2019-05-02T02:12:28.752Z,101246.91
2019-05-02T02:14:58.168Z,101246.42
2019-05-02T02:17:27.840Z,101242.89
2019-05-02T02:20:09.793Z,101236.75
2019-05-02T02:22:41.178Z,101242.29
2019-05-02T02:25:32.238Z,101234.86
2019-05-02T02:28:00.967Z,101231.39
2019-05-02T02:30:30.511Z,101232.69
2019-05-02T02:33:06.974Z,101234.31
2019-05-02T02:35:31.213Z,101226.11
2019-05-02T02:38:00.648Z,101229.52
2019-05-02T02:40:33.815Z,101229.06
2019-05-02T02:43:12.637Z,101229.06
2019-05-02T02:46:00.435Z,101219.31
2019-05-02T02:48:33.597Z,101228.56
2019-05-02T02:51:03.715Z,101216.84
2019-05-02T02:53:33.357Z,101209.01
2019-05-02T02:56:07.960Z,101216.80
2019-05-02T02:58:45.216Z,101215.49
2019-05-02T03:01:08.787Z,101217.61
2019-05-02T03:03:38.422Z,101211.52
2019-05-02T03:06:08.499Z,101208.41
2019-05-02T03:08:45.723Z,101211.07
2019-05-02T03:11:11.231Z,101210.16
2019-05-02T03:13:52.511Z,101206.34
2019-05-02T03:16:21.695Z,101203.63
2019-05-02T03:18:51.707Z,101205.48
2019-05-02T03:21:22.580Z,101198.09
2019-05-02T03:24:02.163Z,101195.84
2019-05-02T03:26:26.321Z,101200.11
2019-05-02T03:28:58.395Z,101200.11
2019-05-02T03:31:30.392Z,101197.50
2019-05-02T03:34:00.812Z,101192.72
2019-05-02T03:36:35.804Z,101197.34
2019-05-02T03:39:13.571Z,101191.22
2019-05-02T03:41:32.119Z,101187.80
2019-05-02T03:44:11.125Z,101189.05
2019-05-02T03:46:33.399Z,101196.95
2019-05-02T03:49:07.418Z,101186.89
2019-05-02T03:51:34.255Z,101180.45
2019-05-02T03:54:07.264Z,101187.84
2019-05-02T03:56:34.814Z,101181.81
2019-05-02T03:59:04.299Z,101181.46
2019-05-02T04:01:34.591Z,101182.77
2019-05-02T04:04:05.705Z,101178.89
2019-05-02T04:06:35.236Z,101180.10
2019-05-02T04:09:07.298Z,101174.07
2019-05-02T04:11:39.057Z,101171.91
2019-05-02T04:14:14.672Z,101173.67
2019-05-02T04:16:40.098Z,101173.17
2019-05-02T04:19:09.589Z,101170.10
2019-05-02T04:21:39.142Z,101167.89
2019-05-02T04:24:13.417Z,101162.26
2019-05-02T04:26:52.590Z,101162.20
2019-05-02T04:29:11.676Z,101157.78
2019-05-02T04:31:41.182Z,101162.44
2019-05-02T04:34:15.279Z,101159.89
2019-05-02T04:36:46.007Z,101155.17
2019-05-02T04:39:18.321Z,101156.88
2019-05-02T04:41:44.260Z,101152.16
2019-05-02T04:44:13.751Z,101155.17
2019-05-02T04:46:43.208Z,101146.37
2019-05-02T04:49:12.691Z,101146.42
2019-05-02T04:51:50.982Z,101137.27
2019-05-02T04:54:21.862Z,101143.30
2019-05-02T04:56:52.334Z,101131.92
2019-05-02T04:59:19.860Z,101132.84
2019-05-02T05:01:54.658Z,101137.55
2019-05-02T05:04:18.167Z,101134.48
2019-05-02T05:06:55.820Z,101131.81
2019-05-02T05:09:18.803Z,101130.80
2019-05-02T05:11:48.296Z,101133.92
2019-05-02T05:14:18.093Z,101132.72
2019-05-02T05:16:51.721Z,101138.30
2019-05-02T05:19:23.017Z,101134.33
2019-05-02T05:21:50.068Z,101138.98
2019-05-02T05:24:21.174Z,101132.86
2019-05-02T05:26:52.595Z,101128.87
2019-05-02T05:29:23.381Z,101132.28
2019-05-02T05:31:55.081Z,101131.73
2019-05-02T05:34:28.477Z,101130.12
2019-05-02T05:36:55.193Z,101122.27
2019-05-02T05:39:24.636Z,101126.77
2019-05-02T05:41:54.045Z,101124.61
2019-05-02T05:44:28.674Z,101122.84
2019-05-02T05:46:54.892Z,101132.91
2019-05-02T05:49:24.780Z,101132.47
2019-05-02T05:51:59.518Z,101124.55
2019-05-02T05:54:25.330Z,101129.05
2019-05-02T05:56:57.342Z,101125.46
2019-05-02T05:59:32.006Z,101125.13
2019-05-02T06:02:00.542Z,101117.40
2019-05-02T06:04:33.043Z,101116.14
2019-05-02T06:07:03.162Z,101118.20
2019-05-02T06:09:32.476Z,101118.97
2019-05-02T06:12:01.924Z,101121.87
2019-05-02T06:14:34.212Z,101115.39
2019-05-02T06:17:03.827Z,101116.99
2019-05-02T06:19:33.272Z,101114.72
2019-05-02T06:22:03.160Z,101114.21
2019-05-02T06:24:34.014Z,101120.35
2019-05-02T06:27:03.605Z,101117.84
2019-05-02T06:29:33.058Z,101112.31
2019-05-02T06:32:03.084Z,101107.99
2019-05-02T06:34:33.145Z,101109.25
2019-05-02T06:37:02.652Z,101111.58
2019-05-02T06:39:33.220Z,101104.50
2019-05-02T06:42:02.721Z,101106.33
2019-05-02T06:44:32.194Z,101106.38
2019-05-02T06:47:04.408Z,101110.68
2019-05-02T06:49:32.939Z,101103.77
2019-05-02T06:52:02.407Z,101104.14
2019-05-02T06:54:31.864Z,101110.25
2019-05-02T06:57:01.321Z,101103.05
2019-05-02T06:59:30.777Z,101102.94
2019-05-02T07:02:00.231Z,101106.47
2019-05-02T07:04:30.269Z,101106.95
2019-05-02T07:07:00.188Z,101100.92
2019-05-02T07:09:40.421Z,101104.27
2019-05-02T07:12:02.628Z,101099.74
2019-05-02T07:14:33.585Z,101103.09
2019-05-02T07:17:05.856Z,101101.55
2019-05-02T07:19:40.122Z,101095.66
2019-05-02T07:22:09.920Z,101098.55
2019-05-02T07:24:39.501Z,101090.97
2019-05-02T07:27:09.108Z,101090.44
2019-05-02T07:29:38.513Z,101081.40
2019-05-02T07:32:08.033Z,101082.20
2019-05-02T07:34:37.467Z,101085.38
2019-05-02T07:37:08.400Z,101082.20
2019-05-02T07:39:40.992Z,101076.09
2019-05-02T07:42:09.535Z,101080.20
2019-05-02T07:44:38.954Z,101079.02
2019-05-02T07:47:09.069Z,101074.30
2019-05-02T07:49:38.560Z,101079.62
2019-05-02T07:52:08.088Z,101077.85
2019-05-02T07:54:37.567Z,101076.31
2019-05-02T07:57:07.033Z,101070.66
2019-05-02T07:59:36.480Z,101060.55
2019-05-02T08:02:06.089Z,101060.25
2019-05-02T08:04:35.601Z,101063.19
2019-05-02T08:07:05.268Z,101048.40
2019-05-02T08:09:39.243Z,101059.46
2019-05-02T08:12:06.926Z,101043.48
2019-05-02T08:14:36.475Z,101049.05
2019-05-02T08:17:10.609Z,101050.95
2019-05-02T08:19:37.565Z,101056.23
2019-05-02T08:22:13.374Z,101051.03
2019-05-02T08:24:39.533Z,101061.09
2019-05-02T08:27:13.586Z,101062.50
2019-05-02T08:29:43.194Z,101067.13
2019-05-02T08:32:13.608Z,101063.19
2019-05-02T08:34:46.250Z,101062.23
2019-05-02T08:37:14.470Z,101053.77
2019-05-02T08:39:43.929Z,101059.56
2019-05-02T08:42:13.954Z,101062.12
2019-05-02T08:44:50.676Z,101075.77
2019-05-02T08:47:19.172Z,101066.33
2019-05-02T08:49:49.281Z,101076.09
2019-05-02T08:52:18.525Z,101078.19
2019-05-02T08:54:48.028Z,101073.08
2019-05-02T08:57:17.536Z,101087.91
2019-05-02T08:59:46.986Z,101072.93
2019-05-02T09:02:16.448Z,101078.78
2019-05-02T09:04:57.884Z,101076.45
2019-05-02T09:07:17.267Z,101074.43
2019-05-02T09:09:46.726Z,101072.66
2019-05-02T09:12:16.369Z,101071.78
2019-05-02T09:14:45.895Z,101070.56
2019-05-02T09:17:16.635Z,101074.00
2019-05-02T09:19:59.424Z,101067.50
2019-05-02T09:22:17.456Z,101085.38
2019-05-02T09:24:47.115Z,101077.42
2019-05-02T09:27:16.625Z,101079.27
2019-05-02T09:29:46.135Z,101080.24
2019-05-02T09:32:17.214Z,101072.90
2019-05-02T09:34:46.953Z,101075.59
2019-05-02T09:37:16.379Z,101075.53
2019-05-02T09:39:45.904Z,101072.12
2019-05-02T09:42:18.850Z,101073.50
2019-05-02T09:44:48.027Z,101071.27
2019-05-02T09:47:27.222Z,101072.47
2019-05-02T09:50:09.643Z,101073.75
2019-05-02T09:52:41.678Z,101074.00
2019-05-02T09:55:12.313Z,101068.81
2019-05-02T09:57:42.742Z,101075.73
2019-05-02T10:00:26.778Z,101072.05
2019-05-02T10:02:53.620Z,101069.67
2019-05-02T10:05:23.154Z,101068.22
2019-05-02T10:07:52.786Z,101065.88
2019-05-02T10:10:23.861Z,101071.91
2019-05-02T10:12:54.919Z,101069.88
2019-05-02T10:15:24.340Z,101071.05
2019-05-02T10:18:07.227Z,101060.64
2019-05-02T10:20:31.886Z,101060.47
2019-05-02T10:22:57.017Z,101051.46
2019-05-02T10:25:32.846Z,101052.52
2019-05-02T10:27:57.810Z,101048.80
2019-05-02T10:30:29.053Z,101045.95
2019-05-02T10:32:58.575Z,101038.22
2019-05-02T10:35:37.225Z,101046.96
2019-05-02T10:38:02.517Z,101038.30
2019-05-02T10:40:32.289Z,101027.56
2019-05-02T10:43:02.880Z,101031.42
2019-05-02T10:45:32.675Z,101028.79
2019-05-02T10:48:02.370Z,101033.19
2019-05-02T10:50:33.635Z,101024.01
2019-05-02T10:53:11.020Z,101025.97
2019-05-02T10:55:34.196Z,101018.52
2019-05-02T10:58:03.650Z,101016.48
2019-05-02T11:00:34.936Z,101016.80
2019-05-02T11:03:15.597Z,101015.20
2019-05-02T11:05:46.673Z,101013.78
2019-05-02T11:08:16.138Z,101010.60
2019-05-02T11:10:46.074Z,101011.68
2019-05-02T11:13:17.202Z,101000.42
2019-05-02T11:15:52.609Z,101013.49
2019-05-02T11:18:39.399Z,101003.25
2019-05-02T11:20:59.146Z,100997.84
2019-05-02T11:23:26.070Z,100998.45
2019-05-02T11:25:55.589Z,100994.84
2019-05-02T11:28:25.051Z,100990.77
2019-05-02T11:30:57.034Z,100990.05
2019-05-02T11:33:25.632Z,100986.32
2019-05-02T11:35:55.056Z,100983.66
2019-05-02T11:38:34.623Z,100985.05
2019-05-02T11:40:55.976Z,100986.89
2019-05-02T11:43:25.401Z,100973.91
2019-05-02T11:46:02.393Z,100971.80
2019-05-02T11:48:26.045Z,100960.34
2019-05-02T11:50:58.024Z,100962.51
2019-05-02T11:53:29.397Z,100962.92
2019-05-02T11:55:58.398Z,100959.81
2019-05-02T11:58:29.187Z,100966.45
2019-05-02T12:01:02.146Z,100954.34
2019-05-02T12:03:42.299Z,100961.29
2019-05-02T12:06:17.119Z,100971.27
2019-05-02T12:08:45.022Z,100957.70
2019-05-02T12:11:17.692Z,100955.49
2019-05-02T12:13:47.228Z,100957.81
2019-05-02T12:16:16.708Z,100964.85
2019-05-02T12:18:46.229Z,100952.15
2019-05-02T12:21:17.266Z,100966.30
2019-05-02T12:23:46.708Z,100951.37
2019-05-02T12:26:16.197Z,100947.98
2019-05-02T12:28:47.369Z,100953.48
2019-05-02T12:31:28.102Z,100963.73
2019-05-02T12:33:59.321Z,100954.09
2019-05-02T12:36:28.818Z,100957.07
2019-05-02T12:38:58.268Z,100950.36
2019-05-02T12:41:27.942Z,100953.59
2019-05-02T12:43:57.458Z,100951.38
2019-05-02T12:46:28.508Z,100940.46
2019-05-02T12:48:58.038Z,100944.25
2019-05-02T12:51:27.556Z,100942.23
2019-05-02T12:53:57.019Z,100934.53
2019-05-02T12:56:26.445Z,100935.39
2019-05-02T12:58:55.895Z,100946.22
2019-05-02T13:01:25.414Z,100933.54
2019-05-02T13:04:08.333Z,100952.08
2019-05-02T13:06:38.002Z,100939.45
2019-05-02T13:09:12.575Z,100944.66
2019-05-02T13:11:49.395Z,100944.66
2019-05-02T13:14:22.489Z,100937.38
2019-05-02T13:16:53.501Z,100948.91
2019-05-02T13:19:36.813Z,100939.88
2019-05-02T13:22:12.457Z,100940.49
2019-05-02T13:24:47.086Z,100889.30
2019-05-02T13:27:16.571Z,100937.39
2019-05-02T13:29:46.819Z,100940.45
2019-05-02T13:32:21.761Z,100937.14
2019-05-02T13:34:57.125Z,100939.55
2019-05-02T13:37:26.837Z,100942.39
2019-05-02T13:39:58.662Z,100937.55
2019-05-02T13:42:28.130Z,100928.17
2019-05-02T13:45:02.544Z,100937.11
2019-05-02T13:47:32.596Z,100945.66
2019-05-02T13:50:04.151Z,100931.14
2019-05-02T13:52:33.712Z,100940.02
2019-05-02T13:55:04.989Z,100938.44
2019-05-02T13:57:41.795Z,100941.62
2019-05-02T14:00:07.588Z,100939.37
2019-05-02T14:02:42.886Z,100937.55
2019-05-02T14:05:16.084Z,100934.73
2019-05-02T14:07:48.399Z,100935.70
2019-05-02T14:10:33.693Z,100937.28
2019-05-02T14:13:03.221Z,100942.34
2019-05-02T14:15:34.541Z,100938.58
2019-05-02T14:18:04.150Z,100938.45
2019-05-02T14:20:33.760Z,100931.00
2019-05-02T14:23:03.238Z,100935.22
2019-05-02T14:25:32.775Z,100931.55
2019-05-02T14:28:03.030Z,100930.88
2019-05-02T14:30:39.920Z,100938.66
2019-05-02T14:33:05.775Z,100913.33
2019-05-02T14:35:36.865Z,100936.72
2019-05-02T14:38:10.275Z,100930.58
2019-05-02T14:40:44.411Z,100920.36
2019-05-02T14:43:15.541Z,100927.12
2019-05-02T14:45:45.029Z,100926.70
2019-05-02T14:48:21.414Z,100921.56
2019-05-02T14:50:49.030Z,100922.25
2019-05-02T14:53:22.096Z,100935.70
2019-05-02T14:55:53.049Z,100922.19
2019-05-02T14:58:25.415Z,100936.62
2019-05-02T15:00:56.845Z,100935.55
2019-05-02T15:03:28.425Z,100932.25
2019-05-02T15:05:59.105Z,100930.23
2019-05-02T15:08:28.757Z,100930.10
2019-05-02T15:10:58.207Z,100932.33
2019-05-02T15:13:32.313Z,100931.07
2019-05-02T15:15:58.843Z,100943.05
2019-05-02T15:18:28.310Z,100950.73
2019-05-02T15:20:57.704Z,100950.48
2019-05-02T15:23:27.138Z,100953.25
2019-05-02T15:25:56.564Z,100944.00
2019-05-02T15:28:31.399Z,100951.34
2019-05-02T15:31:11.805Z,100954.88
2019-05-02T15:34:04.830Z,100961.30
2019-05-02T15:36:32.400Z,100955.91
2019-05-02T15:41:33.059Z,100961.69
2019-05-02T15:44:02.708Z,100961.18
2019-05-02T15:46:32.127Z,100953.61
2019-05-02T15:49:04.534Z,100958.58
2019-05-02T15:51:32.948Z,100958.77
2019-05-02T15:54:08.375Z,100956.03
2019-05-02T15:56:37.300Z,100961.41
2019-05-02T15:59:06.736Z,100967.12
2019-05-02T16:01:47.718Z,100969.17
2019-05-02T16:04:17.230Z,100978.08
2019-05-02T16:06:48.135Z,100969.88
2019-05-02T16:09:17.644Z,100981.48
2019-05-02T16:11:47.928Z,100979.55
2019-05-02T16:14:17.755Z,100971.13
2019-05-02T16:16:47.257Z,100980.44
2019-05-02T16:19:27.165Z,100969.92
2019-05-02T16:21:49.574Z,100974.90
2019-05-02T16:24:19.472Z,100974.64
2019-05-02T16:26:50.411Z,100979.25
2019-05-02T16:29:26.775Z,100976.88
2019-05-02T16:31:54.900Z,100981.38
2019-05-02T16:34:27.316Z,100982.12
2019-05-02T16:37:06.999Z,100990.44
2019-05-02T16:39:35.767Z,100993.10
2019-05-02T16:42:05.936Z,100988.11
2019-05-02T16:44:35.386Z,100984.76
2019-05-02T16:47:05.325Z,100987.27
2019-05-02T16:49:36.451Z,100988.09
2019-05-02T16:52:08.442Z,100996.98
2019-05-02T16:54:41.746Z,100993.55
2019-05-02T16:57:08.247Z,100995.14
2019-05-02T16:59:37.736Z,100998.27
2019-05-02T17:02:07.956Z,101002.62
2019-05-02T17:04:40.031Z,101002.73
2019-05-02T17:07:11.660Z,101008.96
2019-05-02T17:10:02.899Z,100999.94
2019-05-02T17:12:31.940Z,100999.48
2019-05-02T17:15:19.173Z,100999.97
2019-05-02T17:17:48.581Z,101000.98
2019-05-02T17:20:18.150Z,100999.73
2019-05-02T17:22:50.315Z,100996.88
2019-05-02T17:25:18.745Z,100998.53
2019-05-02T17:27:48.177Z,100995.86
2019-05-02T17:30:18.595Z,101000.79
2019-05-02T17:32:47.983Z,100996.49
2019-05-02T17:35:17.783Z,100999.73
2019-05-02T17:37:49.119Z,101000.41
2019-05-02T17:40:22.468Z,101003.86
2019-05-02T17:42:49.820Z,101006.45
2019-05-02T17:45:19.534Z,101010.91
2019-05-02T17:47:49.032Z,101011.72
2019-05-02T17:50:26.690Z,101019.02
2019-05-02T17:53:01.186Z,101013.98
2019-05-02T17:55:32.837Z,101020.92
2019-05-02T17:58:06.311Z,101019.08
2019-05-02T18:00:35.850Z,101025.47
2019-05-02T18:03:05.601Z,101019.22
2019-05-02T18:05:36.179Z,101022.23
2019-05-02T18:08:10.750Z,101026.98
2019-05-02T18:10:37.220Z,101026.87
2019-05-02T18:13:06.782Z,101030.39
2019-05-02T18:15:36.361Z,101027.41
2019-05-02T18:18:07.860Z,101030.98
2019-05-02T18:20:41.554Z,101027.23
2019-05-02T18:23:08.273Z,101025.98
2019-05-02T18:25:38.342Z,101030.59
2019-05-02T18:28:07.749Z,101028.94
2019-05-02T18:30:37.267Z,101029.56
2019-05-02T18:33:07.370Z,101033.87
2019-05-02T18:35:37.463Z,101038.28
2019-05-02T18:38:07.994Z,101035.48
2019-05-02T18:40:38.928Z,101035.31
2019-05-02T18:43:08.408Z,101031.95
2019-05-02T18:45:37.900Z,101038.55
2019-05-02T18:48:07.464Z,101037.53
2019-05-02T18:50:44.557Z,101045.98
2019-05-02T18:53:13.606Z,101044.68
2019-05-02T18:55:43.012Z,101052.19
2019-05-02T18:58:12.914Z,101055.24
2019-05-02T19:00:42.429Z,101055.72
2019-05-02T19:03:16.818Z,101058.33
2019-05-02T19:05:46.411Z,101061.45
2019-05-02T19:08:15.132Z,101062.75
2019-05-02T19:11:01.344Z,101068.14
2019-05-02T19:13:16.002Z,101067.28
2019-05-02T19:15:48.932Z,101069.60
2019-05-02T19:18:17.842Z,101077.86
2019-05-02T19:20:56.799Z,101075.55
2019-05-02T19:23:22.634Z,101077.89
2019-05-02T19:25:52.813Z,101087.70
2019-05-02T19:28:29.154Z,101086.56
2019-05-02T19:31:05.120Z,101084.09
2019-05-02T19:33:31.849Z,101088.86
2019-05-02T19:36:02.816Z,101085.09
2019-05-02T19:38:34.894Z,101089.87
2019-05-02T19:41:08.840Z,101095.20
2019-05-02T19:43:40.200Z,101095.16
2019-05-02T19:46:07.899Z,101097.41
2019-05-02T19:48:40.371Z,101101.28
2019-05-02T19:51:10.569Z,101099.97
2019-05-02T19:53:39.696Z,101106.05
2019-05-02T19:56:09.215Z,101107.31
2019-05-02T19:58:42.726Z,101100.77
2019-05-02T20:01:09.770Z,101110.26
2019-05-02T20:03:39.339Z,101108.71
2019-05-02T20:06:09.052Z,101110.42
2019-05-02T20:08:38.548Z,101118.40
2019-05-02T20:11:12.576Z,101116.28
2019-05-02T20:13:42.186Z,101123.77
2019-05-02T20:16:25.276Z,101124.27
2019-05-02T20:18:54.672Z,101127.83
2019-05-02T20:21:27.904Z,101133.10
2019-05-02T20:23:56.866Z,101131.84
2019-05-02T20:26:26.512Z,101134.20
2019-05-02T20:28:55.924Z,101134.29
2019-05-02T20:31:25.388Z,101138.80
2019-05-02T20:33:54.866Z,101133.77
2019-05-02T20:36:24.286Z,101132.05
2019-05-02T20:38:54.073Z,101128.27
2019-05-02T20:41:23.647Z,101126.53
2019-05-02T20:43:53.143Z,101127.43
2019-05-02T20:46:22.622Z,101130.03
2019-05-02T20:48:52.596Z,101130.09
2019-05-02T20:51:22.862Z,101127.52
2019-05-02T20:53:52.758Z,101133.59
2019-05-02T20:56:23.001Z,101135.75
2019-05-02T20:58:52.840Z,101141.73
2019-05-02T21:01:22.371Z,101135.66
2019-05-02T21:03:52.247Z,101133.94
2019-05-02T21:06:37.369Z,101141.28
2019-05-02T21:08:59.171Z,101142.64
2019-05-02T21:11:29.329Z,101140.93
2019-05-02T21:13:58.782Z,101140.08
2019-05-02T21:16:28.251Z,101148.13
2019-05-02T21:18:57.730Z,101146.45
2019-05-02T21:21:27.418Z,101146.41
2019-05-02T21:23:56.920Z,101145.55
2019-05-02T21:26:26.361Z,101148.61
2019-05-02T21:28:55.886Z,101146.95
2019-05-02T21:31:25.394Z,101147.86
2019-05-02T21:33:57.837Z,101157.52
2019-05-02T21:36:27.338Z,101163.91
2019-05-02T21:38:56.808Z,101159.95
2019-05-02T21:41:26.371Z,101167.05
2019-05-02T21:43:55.882Z,101175.45
2019-05-02T21:46:25.379Z,101171.15
2019-05-02T21:48:54.922Z,101170.70
2019-05-02T21:51:29.116Z,101167.77
2019-05-02T21:54:03.177Z,101173.47
2019-05-02T21:56:37.201Z,101175.10
2019-05-02T21:59:08.323Z,101175.52
2019-05-02T22:01:42.462Z,101173.22
2019-05-02T22:04:13.142Z,101178.47
2019-05-02T22:06:42.946Z,101172.36
2019-05-02T22:09:12.631Z,101181.48
2019-05-02T22:11:43.073Z,101185.21
2019-05-02T22:14:13.228Z,101185.34
2019-05-02T22:16:43.295Z,101190.44
2019-05-02T22:19:12.861Z,101184.94
2019-05-02T22:21:43.050Z,101190.39
2019-05-02T22:24:14.379Z,101190.63
2019-05-02T22:26:44.044Z,101195.50
2019-05-02T22:29:13.473Z,101193.46
2019-05-02T22:31:43.235Z,101193.13
2019-05-02T22:34:13.032Z,101196.11
2019-05-02T22:36:43.625Z,101197.52
2019-05-02T22:39:18.479Z,101196.22
2019-05-02T22:41:48.064Z,101201.84
2019-05-02T22:44:17.571Z,101201.84
2019-05-02T22:46:48.609Z,101203.17
2019-05-02T22:49:18.100Z,101197.08
2019-05-02T22:51:47.635Z,101198.38
2019-05-02T22:54:26.990Z,101200.20
2019-05-02T22:56:48.309Z,101202.84
2019-05-02T22:59:17.739Z,101205.89
2019-05-02T23:01:47.362Z,101206.30
2019-05-02T23:04:16.852Z,101206.27
2019-05-02T23:06:46.390Z,101205.03
2019-05-02T23:09:16.204Z,101195.55
2019-05-02T23:11:45.686Z,101202.33
2019-05-02T23:14:15.269Z,101199.34
2019-05-02T23:16:44.731Z,101207.23
2019-05-02T23:19:14.192Z,101207.83
2019-05-02T23:21:43.707Z,101203.44
2019-05-02T23:24:14.895Z,101206.59
2019-05-02T23:26:46.071Z,101204.81
2019-05-02T23:29:17.477Z,101202.45
2019-05-02T23:31:47.013Z,101203.83
2019-05-02T23:34:16.472Z,101207.42
2019-05-02T23:36:46.066Z,101216.23
2019-05-02T23:39:15.527Z,101209.34
2019-05-02T23:41:44.975Z,101212.80
2019-05-02T23:44:14.405Z,101216.23
2019-05-02T23:46:43.944Z,101228.64
2019-05-02T23:49:13.373Z,101232.64
2019-05-02T23:51:42.959Z,101239.77
2019-05-02T23:54:13.055Z,101242.24
2019-05-02T23:56:43.168Z,101235.12
2019-05-02T23:59:12.712Z,101222.55
